createdAt,value
2019-03-10T00:01:54.377Z,81.30
2019-03-10T00:04:21.712Z,81.00
2019-03-10T00:06:49.174Z,81.50
2019-03-10T00:09:16.592Z,81.30
2019-03-10T00:11:44.017Z,81.50
2019-03-10T00:14:12.281Z,82.20
2019-03-10T00:16:39.717Z,82.60
2019-03-10T00:19:07.150Z,83.90
2019-03-10T00:21:34.592Z,83.60
2019-03-10T00:24:02.046Z,84.20
2019-03-10T00:26:29.501Z,84.60
2019-03-10T00:28:57.217Z,85.60
2019-03-10T00:31:24.650Z,85.30
2019-03-10T00:33:52.078Z,86.20
2019-03-10T00:36:19.529Z,87.20
2019-03-10T00:39:34.511Z,87.40
2019-03-10T00:42:26.660Z,87.10
2019-03-10T00:45:35.434Z,86.30
2019-03-10T00:48:34.422Z,87.10
2019-03-10T00:51:51.792Z,87.80
2019-03-10T00:54:19.429Z,88.50
2019-03-10T00:56:46.847Z,89.30
2019-03-10T00:59:14.271Z,89.40
2019-03-10T01:01:41.707Z,88.00
2019-03-10T01:04:09.134Z,87.00
2019-03-10T01:06:36.542Z,88.40
2019-03-10T01:09:04.735Z,86.20
2019-03-10T01:11:32.048Z,84.90
2019-03-10T01:13:59.516Z,86.30
2019-03-10T01:16:27.908Z,85.40
2019-03-10T01:18:56.149Z,86.10
2019-03-10T01:21:24.579Z,88.10
2019-03-10T01:23:52.019Z,88.80
2019-03-10T01:26:19.464Z,89.90
2019-03-10T01:28:46.890Z,90.20
2019-03-10T01:31:33.044Z,90.60
2019-03-10T01:34:19.391Z,91.00
2019-03-10T01:36:46.852Z,91.20
2019-03-10T01:39:14.300Z,92.20
2019-03-10T01:41:41.713Z,92.60
2019-03-10T01:44:09.169Z,93.00
2019-03-10T01:46:36.604Z,92.60
2019-03-10T01:49:04.034Z,92.90
2019-03-10T01:51:31.464Z,91.40
2019-03-10T01:53:58.924Z,91.50
2019-03-10T01:56:26.372Z,92.00
2019-03-10T01:58:53.813Z,92.20
2019-03-10T02:01:21.156Z,92.20
2019-03-10T02:03:48.771Z,92.70
2019-03-10T02:06:16.204Z,93.00
2019-03-10T02:08:43.633Z,92.90
2019-03-10T02:11:10.984Z,92.80
2019-03-10T02:13:38.322Z,93.00
2019-03-10T02:16:06.263Z,93.00
2019-03-10T02:18:33.705Z,92.90
2019-03-10T02:21:01.156Z,93.30
2019-03-10T02:23:28.600Z,93.30
2019-03-10T02:25:56.056Z,93.40
2019-03-10T02:28:23.493Z,93.40
2019-03-10T02:30:50.933Z,93.30
2019-03-10T02:33:18.529Z,93.50
2019-03-10T02:35:45.965Z,93.40
2019-03-10T02:38:13.413Z,92.40
2019-03-10T02:40:43.269Z,93.40
2019-03-10T02:43:10.085Z,93.50
2019-03-10T02:45:37.532Z,93.50
2019-03-10T02:48:04.981Z,93.60
2019-03-10T02:50:32.458Z,93.90
2019-03-10T02:52:59.872Z,93.40
2019-03-10T02:55:27.344Z,93.50
2019-03-10T02:57:54.730Z,93.50
2019-03-10T03:00:22.233Z,93.10
2019-03-10T03:02:49.890Z,92.90
2019-03-10T03:05:17.333Z,93.00
2019-03-10T03:07:44.871Z,93.10
2019-03-10T03:10:12.474Z,93.50
2019-03-10T03:12:39.937Z,93.10
2019-03-10T03:15:08.009Z,93.00
2019-03-10T03:17:35.463Z,93.10
2019-03-10T03:20:03.341Z,93.40
2019-03-10T03:22:30.773Z,93.40
2019-03-10T03:24:58.244Z,93.60
2019-03-10T03:27:25.683Z,93.40
2019-03-10T03:29:53.117Z,93.40
2019-03-10T03:32:20.690Z,93.70
2019-03-10T03:34:48.229Z,94.50
2019-03-10T03:37:18.549Z,93.80
2019-03-10T03:39:48.083Z,94.10
2019-03-10T03:42:15.521Z,94.40
2019-03-10T03:44:42.949Z,94.40
2019-03-10T03:47:10.441Z,94.50
2019-03-10T03:49:37.895Z,94.50
2019-03-10T03:52:05.338Z,94.50
2019-03-10T03:54:32.804Z,94.70
2019-03-10T03:57:00.265Z,94.70
2019-03-10T03:59:27.717Z,94.70
2019-03-10T04:02:05.657Z,94.60
2019-03-10T04:04:33.218Z,94.90
2019-03-10T04:07:00.712Z,94.40
2019-03-10T04:09:28.183Z,94.70
2019-03-10T04:11:55.745Z,94.80
2019-03-10T04:14:23.177Z,94.60
2019-03-10T04:16:50.640Z,94.40
2019-03-10T04:19:18.124Z,94.60
2019-03-10T04:21:46.629Z,94.60
2019-03-10T04:24:13.993Z,94.20
2019-03-10T04:26:41.435Z,94.80
2019-03-10T04:29:08.897Z,94.70
2019-03-10T04:31:36.324Z,94.70
2019-03-10T04:34:03.755Z,95.00
2019-03-10T04:36:31.207Z,95.60
2019-03-10T04:38:58.636Z,94.60
2019-03-10T04:41:26.082Z,94.40
2019-03-10T04:43:53.541Z,94.50
2019-03-10T04:46:21.046Z,94.60
2019-03-10T04:48:48.709Z,94.30
2019-03-10T04:51:16.174Z,94.10
2019-03-10T04:53:43.597Z,94.40
2019-03-10T04:56:28.056Z,94.40
2019-03-10T04:58:55.504Z,95.10
2019-03-10T05:01:23.135Z,95.20
2019-03-10T05:03:50.600Z,95.10
2019-03-10T05:06:18.070Z,94.90
2019-03-10T05:08:45.504Z,94.60
2019-03-10T05:11:12.961Z,94.70
2019-03-10T05:13:40.398Z,94.90
2019-03-10T05:16:07.816Z,94.90
2019-03-10T05:18:35.259Z,95.00
2019-03-10T05:21:02.755Z,94.80
2019-03-10T05:23:38.365Z,95.20
2019-03-10T05:26:05.814Z,95.30
2019-03-10T05:28:34.234Z,95.90
2019-03-10T05:31:01.756Z,95.60
2019-03-10T05:33:29.208Z,95.80
2019-03-10T05:35:56.658Z,95.70
2019-03-10T05:38:24.123Z,95.60
2019-03-10T05:40:51.553Z,95.40
2019-03-10T05:43:19.296Z,95.60
2019-03-10T05:45:46.765Z,95.60
2019-03-10T05:48:14.204Z,95.70
2019-03-10T05:50:41.639Z,95.80
2019-03-10T05:53:09.133Z,95.80
2019-03-10T05:55:36.568Z,95.80
2019-03-10T05:58:04.017Z,96.10
2019-03-10T06:00:42.229Z,96.10
2019-03-10T06:03:01.778Z,96.40
2019-03-10T06:05:29.115Z,96.90
2019-03-10T06:07:56.592Z,97.00
2019-03-10T06:10:24.034Z,97.10
2019-03-10T06:12:51.468Z,97.20
2019-03-10T06:15:19.020Z,97.10
2019-03-10T06:17:46.463Z,97.10
2019-03-10T06:20:13.892Z,97.30
2019-03-10T06:22:41.327Z,97.70
2019-03-10T06:25:08.629Z,97.90
2019-03-10T06:27:36.039Z,98.20
2019-03-10T06:30:03.898Z,98.30
2019-03-10T06:32:31.232Z,98.20
2019-03-10T06:34:58.680Z,98.10
2019-03-10T06:37:26.148Z,98.00
2019-03-10T06:39:53.693Z,97.80
2019-03-10T06:42:21.130Z,97.50
2019-03-10T06:44:48.607Z,97.20
2019-03-10T06:47:16.165Z,96.90
2019-03-10T06:49:43.613Z,96.60
2019-03-10T06:52:11.065Z,96.50
2019-03-10T06:54:38.496Z,96.30
2019-03-10T06:57:05.929Z,96.30
2019-03-10T06:59:33.563Z,95.90
2019-03-10T07:02:01.011Z,95.60
2019-03-10T07:04:28.451Z,95.50
2019-03-10T07:06:55.908Z,95.20
2019-03-10T07:09:23.338Z,95.30
2019-03-10T07:11:50.785Z,95.10
2019-03-10T07:14:18.252Z,95.00
2019-03-10T07:16:45.744Z,94.80
2019-03-10T07:19:13.149Z,94.50
2019-03-10T07:21:40.578Z,94.30
2019-03-10T07:24:08.048Z,94.10
2019-03-10T07:26:35.485Z,94.00
2019-03-10T07:29:08.058Z,94.00
2019-03-10T07:31:44.147Z,93.90
2019-03-10T07:34:39.925Z,93.80
2019-03-10T07:37:22.604Z,93.50
2019-03-10T07:40:27.960Z,93.50
2019-03-10T07:43:04.271Z,93.40
2019-03-10T07:45:50.338Z,93.40
2019-03-10T07:48:46.556Z,93.40
2019-03-10T07:51:36.284Z,93.90
2019-03-10T07:54:24.849Z,94.00
2019-03-10T07:57:20.504Z,94.20
2019-03-10T08:00:16.488Z,94.40
2019-03-10T08:02:49.356Z,94.60
2019-03-10T08:05:36.320Z,94.90
2019-03-10T08:08:17.231Z,94.80
2019-03-10T08:11:04.253Z,95.00
2019-03-10T08:13:51.333Z,94.80
2019-03-10T08:16:41.185Z,94.80
2019-03-10T08:19:34.192Z,94.90
2019-03-10T08:22:19.760Z,94.70
2019-03-10T08:25:09.349Z,94.90
2019-03-10T08:28:01.867Z,94.80
2019-03-10T08:30:42.785Z,94.60
2019-03-10T08:33:41.832Z,94.70
2019-03-10T08:36:27.135Z,94.40
2019-03-10T08:39:20.163Z,94.20
2019-03-10T08:42:20.309Z,93.90
2019-03-10T08:45:00.864Z,93.30
2019-03-10T08:47:58.251Z,93.60
2019-03-10T08:50:43.693Z,92.80
2019-03-10T08:53:22.300Z,91.90
2019-03-10T08:56:15.028Z,90.90
2019-03-10T08:58:53.747Z,90.40
2019-03-10T09:01:42.727Z,90.60
2019-03-10T09:04:29.834Z,90.40
2019-03-10T09:07:34.958Z,90.10
2019-03-10T09:10:15.224Z,89.50
2019-03-10T09:12:51.764Z,88.80
2019-03-10T09:15:41.510Z,89.90
2019-03-10T09:18:34.337Z,88.80
2019-03-10T09:21:22.540Z,86.40
2019-03-10T09:24:13.172Z,87.80
2019-03-10T09:26:52.269Z,87.70
2019-03-10T09:29:25.911Z,85.90
2019-03-10T09:32:11.781Z,86.20
2019-03-10T09:34:57.987Z,86.60
2019-03-10T09:37:44.926Z,88.40
2019-03-10T09:40:34.440Z,90.10
2019-03-10T09:43:23.986Z,90.80
2019-03-10T09:46:02.867Z,91.70
2019-03-10T09:48:38.616Z,92.10
2019-03-10T09:51:19.756Z,91.70
2019-03-10T09:54:15.574Z,91.30
2019-03-10T09:57:01.906Z,90.80
2019-03-10T09:59:48.874Z,90.00
2019-03-10T10:02:34.304Z,88.40
2019-03-10T10:05:08.075Z,87.20
2019-03-10T10:07:58.584Z,86.30
2019-03-10T10:10:37.264Z,85.40
2019-03-10T10:13:25.758Z,86.30
2019-03-10T10:16:12.180Z,85.60
2019-03-10T10:18:57.721Z,86.20
2019-03-10T10:21:44.659Z,85.20
2019-03-10T10:24:18.848Z,84.10
2019-03-10T10:27:05.844Z,85.00
2019-03-10T10:29:52.821Z,87.00
2019-03-10T10:32:29.902Z,85.40
2019-03-10T10:35:25.492Z,84.30
2019-03-10T10:38:27.561Z,82.70
2019-03-10T10:41:08.244Z,84.70
2019-03-10T10:43:58.027Z,84.30
2019-03-10T10:46:44.977Z,84.10
2019-03-10T10:49:19.281Z,84.40
2019-03-10T10:52:24.443Z,85.60
2019-03-10T10:54:58.643Z,87.30
2019-03-10T10:57:33.102Z,90.00
2019-03-10T11:00:20.059Z,89.70
2019-03-10T11:03:19.077Z,90.80
2019-03-10T11:06:13.128Z,90.40
2019-03-10T11:09:18.350Z,90.30
2019-03-10T11:12:06.725Z,88.90
2019-03-10T11:14:56.046Z,88.90
2019-03-10T11:17:45.784Z,87.60
2019-03-10T11:20:31.392Z,87.30
2019-03-10T11:23:27.368Z,87.90
2019-03-10T11:26:00.239Z,86.70
2019-03-10T11:28:50.133Z,87.00
2019-03-10T11:31:43.394Z,86.20
2019-03-10T11:34:18.045Z,84.70
2019-03-10T11:36:52.523Z,83.20
2019-03-10T11:39:27.836Z,82.50
2019-03-10T11:42:01.981Z,81.50
2019-03-10T11:45:04.238Z,81.60
2019-03-10T11:47:51.194Z,78.80
2019-03-10T11:50:32.345Z,79.10
2019-03-10T11:53:19.344Z,77.80
2019-03-10T11:56:05.721Z,77.90
2019-03-10T11:58:54.126Z,74.20
2019-03-10T12:01:26.437Z,74.30
2019-03-10T12:04:13.399Z,71.50
2019-03-10T12:06:51.600Z,70.30
2019-03-10T12:09:20.512Z,70.90
2019-03-10T12:11:48.760Z,69.60
2019-03-10T12:14:16.308Z,66.20
2019-03-10T12:16:43.757Z,64.70
2019-03-10T12:19:11.196Z,66.30
2019-03-10T12:21:38.677Z,63.70
2019-03-10T12:24:06.140Z,63.20
2019-03-10T12:26:33.536Z,63.10
2019-03-10T12:29:00.978Z,63.10
2019-03-10T12:31:28.561Z,65.10
2019-03-10T12:33:56.116Z,64.00
2019-03-10T12:36:23.548Z,62.40
2019-03-10T12:38:51.008Z,60.80
2019-03-10T12:41:18.520Z,61.20
2019-03-10T12:43:45.957Z,61.00
2019-03-10T12:46:13.404Z,62.60
2019-03-10T12:48:40.849Z,61.70
2019-03-10T12:51:08.306Z,60.90
2019-03-10T12:53:35.749Z,61.50
2019-03-10T12:56:03.453Z,60.70
2019-03-10T12:58:30.897Z,61.10
2019-03-10T13:01:06.065Z,62.60
2019-03-10T13:03:27.641Z,64.00
2019-03-10T13:05:55.056Z,64.50
2019-03-10T13:08:22.489Z,61.40
2019-03-10T13:10:49.945Z,61.20
2019-03-10T13:13:17.451Z,61.70
2019-03-10T13:15:44.862Z,61.50
2019-03-10T13:18:12.336Z,62.30
2019-03-10T13:20:39.787Z,62.70
2019-03-10T13:23:07.212Z,64.10
2019-03-10T13:25:34.680Z,61.70
2019-03-10T13:28:02.226Z,60.60
2019-03-10T13:30:29.750Z,62.90
2019-03-10T13:32:57.235Z,61.20
2019-03-10T13:35:24.660Z,61.50
2019-03-10T13:37:52.092Z,61.30
2019-03-10T13:40:19.565Z,60.90
2019-03-10T13:42:47.049Z,60.00
2019-03-10T13:45:14.528Z,60.50
2019-03-10T13:47:42.040Z,60.80
2019-03-10T13:50:10.739Z,62.30
2019-03-10T13:52:38.328Z,60.90
2019-03-10T13:55:06.584Z,61.60
2019-03-10T13:57:34.008Z,61.60
2019-03-10T14:00:01.474Z,61.80
2019-03-10T14:02:28.928Z,62.70
2019-03-10T14:04:56.370Z,63.90
2019-03-10T14:07:23.817Z,63.60
2019-03-10T14:09:51.284Z,65.10
2019-03-10T14:12:18.923Z,64.80
2019-03-10T14:14:46.351Z,65.80
2019-03-10T14:17:13.812Z,64.90
2019-03-10T14:19:41.237Z,65.60
2019-03-10T14:22:08.589Z,66.90
2019-03-10T14:24:36.049Z,65.00
2019-03-10T14:27:03.494Z,66.40
2019-03-10T14:29:30.929Z,67.30
2019-03-10T14:31:58.528Z,68.00
2019-03-10T14:34:25.957Z,70.40
2019-03-10T14:36:53.386Z,75.40
2019-03-10T14:39:20.854Z,78.20
2019-03-10T14:41:48.345Z,79.40
2019-03-10T14:44:15.889Z,82.60
2019-03-10T14:46:46.493Z,86.50
2019-03-10T14:49:22.520Z,86.70
2019-03-10T14:51:43.794Z,89.50
2019-03-10T14:54:11.493Z,88.70
2019-03-10T14:56:38.921Z,88.70
2019-03-10T14:59:06.364Z,90.00
2019-03-10T15:01:33.818Z,88.40
2019-03-10T15:04:01.346Z,88.00
2019-03-10T15:06:28.772Z,87.90
2019-03-10T15:08:56.209Z,89.00
2019-03-10T15:11:23.643Z,87.70
2019-03-10T15:13:51.089Z,85.20
2019-03-10T15:16:18.540Z,86.00
2019-03-10T15:18:46.030Z,87.30
2019-03-10T15:21:13.478Z,83.10
2019-03-10T15:23:40.915Z,87.00
2019-03-10T15:26:08.486Z,83.90
2019-03-10T15:28:35.915Z,85.50
2019-03-10T15:31:03.356Z,86.50
2019-03-10T15:33:30.837Z,86.00
2019-03-10T15:35:58.338Z,87.00
2019-03-10T15:38:25.763Z,85.20
2019-03-10T15:40:53.232Z,84.90
2019-03-10T15:43:20.701Z,82.80
2019-03-10T15:45:48.187Z,82.30
2019-03-10T15:48:15.643Z,80.10
2019-03-10T15:50:43.087Z,82.70
2019-03-10T15:53:10.505Z,79.20
2019-03-10T15:55:37.957Z,80.60
2019-03-10T15:58:05.493Z,79.30
2019-03-10T16:00:32.924Z,79.50
2019-03-10T16:03:00.395Z,79.30
2019-03-10T16:05:27.837Z,79.90
2019-03-10T16:07:55.375Z,77.40
2019-03-10T16:10:22.967Z,76.90
2019-03-10T16:12:50.500Z,74.00
2019-03-10T16:15:18.050Z,73.50
2019-03-10T16:17:45.991Z,72.10
2019-03-10T16:20:13.850Z,72.00
2019-03-10T16:22:42.655Z,72.40
2019-03-10T16:25:11.081Z,72.30
2019-03-10T16:27:38.497Z,73.50
2019-03-10T16:30:08.675Z,72.70
2019-03-10T16:32:36.127Z,74.20
2019-03-10T16:35:04.081Z,72.90
2019-03-10T16:37:31.524Z,71.70
2019-03-10T16:39:58.966Z,74.20
2019-03-10T16:42:26.520Z,73.20
2019-03-10T16:44:54.000Z,74.50
2019-03-10T16:47:21.436Z,73.70
2019-03-10T16:49:48.792Z,72.80
2019-03-10T16:52:16.323Z,72.80
2019-03-10T16:54:43.772Z,72.80
2019-03-10T16:57:11.179Z,73.00
2019-03-10T16:59:38.541Z,73.70
2019-03-10T17:02:06.081Z,73.60
2019-03-10T17:04:33.618Z,74.10
2019-03-10T17:07:01.293Z,74.90
2019-03-10T17:09:28.730Z,74.50
2019-03-10T17:11:56.183Z,74.30
2019-03-10T17:14:23.622Z,76.20
2019-03-10T17:16:51.059Z,76.30
2019-03-10T17:19:18.610Z,75.90
2019-03-10T17:21:46.068Z,76.40
2019-03-10T17:24:13.502Z,77.50
2019-03-10T17:26:40.935Z,76.60
2019-03-10T17:29:08.386Z,76.80
2019-03-10T17:31:35.867Z,68.50
2019-03-10T17:34:03.298Z,65.50
2019-03-10T17:36:30.876Z,70.20
2019-03-10T17:38:58.309Z,67.70
2019-03-10T17:41:25.753Z,66.80
2019-03-10T17:43:53.317Z,65.80
2019-03-10T17:46:20.776Z,66.10
2019-03-10T17:48:48.297Z,67.40
2019-03-10T17:51:15.749Z,66.50
2019-03-10T17:53:43.086Z,65.90
2019-03-10T17:56:10.535Z,64.10
2019-03-10T17:58:38.016Z,66.70
2019-03-10T18:01:05.432Z,65.00
2019-03-10T18:03:32.866Z,65.20
2019-03-10T18:06:00.302Z,66.90
2019-03-10T18:08:27.744Z,66.70
2019-03-10T18:10:55.204Z,67.00
2019-03-10T18:13:22.634Z,68.00
2019-03-10T18:15:50.097Z,68.50
2019-03-10T18:18:17.564Z,70.20
2019-03-10T18:20:44.999Z,70.10
2019-03-10T18:23:12.452Z,71.00
2019-03-10T18:25:39.897Z,71.10
2019-03-10T18:28:07.335Z,71.90
2019-03-10T18:30:34.793Z,73.20
2019-03-10T18:33:02.256Z,73.70
2019-03-10T18:35:29.681Z,75.30
2019-03-10T18:37:57.125Z,76.30
2019-03-10T18:40:24.563Z,76.30
2019-03-10T18:42:52.053Z,76.70
2019-03-10T18:45:19.847Z,77.10
2019-03-10T18:47:47.357Z,77.60
2019-03-10T18:50:15.857Z,78.40
2019-03-10T18:52:43.272Z,78.60
2019-03-10T18:55:11.037Z,79.00
2019-03-10T18:57:38.508Z,77.90
2019-03-10T19:00:07.672Z,78.10
2019-03-10T19:02:35.132Z,78.00
2019-03-10T19:05:03.128Z,78.40
2019-03-10T19:07:30.706Z,78.10
2019-03-10T19:09:58.163Z,76.80
2019-03-10T19:12:25.607Z,76.30
2019-03-10T19:14:53.042Z,75.90
2019-03-10T19:17:20.600Z,75.90
2019-03-10T19:19:48.053Z,76.00
2019-03-10T19:22:15.503Z,75.30
2019-03-10T19:24:42.940Z,75.20
2019-03-10T19:27:10.459Z,75.20
2019-03-10T19:29:37.959Z,76.30
2019-03-10T19:32:05.396Z,74.60
2019-03-10T19:34:32.889Z,73.90
2019-03-10T19:37:00.343Z,73.40
2019-03-10T19:39:27.847Z,72.70
2019-03-10T19:41:55.334Z,72.50
2019-03-10T19:44:22.764Z,71.70
2019-03-10T19:46:50.325Z,71.60
2019-03-10T19:49:17.828Z,70.40
2019-03-10T19:51:45.253Z,70.20
2019-03-10T19:54:12.697Z,68.90
2019-03-10T19:56:40.141Z,69.50
2019-03-10T19:59:07.574Z,68.10
2019-03-10T20:01:35.000Z,67.80
2019-03-10T20:04:02.459Z,68.80
2019-03-10T20:06:29.866Z,68.90
2019-03-10T20:08:57.292Z,67.80
2019-03-10T20:11:24.714Z,66.60
2019-03-10T20:13:52.167Z,67.00
2019-03-10T20:16:19.612Z,68.60
2019-03-10T20:18:47.081Z,66.10
2019-03-10T20:21:14.607Z,66.90
2019-03-10T20:23:42.071Z,66.40
2019-03-10T20:26:09.513Z,67.00
2019-03-10T20:28:36.978Z,65.90
2019-03-10T20:31:04.512Z,67.00
2019-03-10T20:33:31.965Z,66.00
2019-03-10T20:35:59.421Z,67.00
2019-03-10T20:38:26.876Z,66.80
2019-03-10T20:40:54.310Z,68.30
2019-03-10T20:43:21.784Z,68.20
2019-03-10T20:45:49.337Z,67.60
2019-03-10T20:48:16.952Z,68.20
2019-03-10T20:50:44.352Z,67.70
2019-03-10T20:53:12.005Z,68.30
2019-03-10T20:55:39.585Z,68.80
2019-03-10T20:58:07.130Z,69.00
2019-03-10T21:00:34.561Z,68.70
2019-03-10T21:03:02.020Z,69.50
2019-03-10T21:05:29.472Z,68.80
2019-03-10T21:07:56.951Z,69.00
2019-03-10T21:10:24.557Z,68.70
2019-03-10T21:12:52.008Z,69.00
2019-03-10T21:15:19.576Z,68.40
2019-03-10T21:17:47.065Z,68.40
2019-03-10T21:20:15.401Z,68.40
2019-03-10T21:22:43.179Z,68.00
2019-03-10T21:25:12.980Z,67.70
2019-03-10T21:27:40.426Z,67.00
2019-03-10T21:30:11.118Z,67.00
2019-03-10T21:32:38.577Z,66.40
2019-03-10T21:35:16.859Z,66.70
2019-03-10T21:37:35.373Z,66.40
2019-03-10T21:40:03.064Z,65.20
2019-03-10T21:42:30.546Z,65.90
2019-03-10T21:44:57.988Z,66.00
2019-03-10T21:47:25.457Z,66.10
2019-03-10T21:49:52.907Z,65.20
2019-03-10T21:52:20.382Z,65.20
2019-03-10T21:54:48.013Z,65.90
2019-03-10T21:57:15.419Z,66.70
2019-03-10T21:59:42.881Z,66.20
2019-03-10T22:02:10.304Z,65.60
2019-03-10T22:04:37.741Z,65.40
2019-03-10T22:07:05.225Z,65.00
2019-03-10T22:09:32.672Z,65.10
2019-03-10T22:12:00.254Z,65.40
2019-03-10T22:14:28.700Z,64.50
2019-03-10T22:16:56.426Z,65.30
2019-03-10T22:19:23.909Z,66.50
2019-03-10T22:21:51.407Z,69.00
2019-03-10T22:24:20.849Z,73.10
2019-03-10T22:26:48.340Z,77.60
2019-03-10T22:29:16.768Z,80.00
2019-03-10T22:31:44.211Z,80.30
2019-03-10T22:34:11.640Z,81.60
2019-03-10T22:36:39.097Z,87.00
2019-03-10T22:39:06.670Z,89.30
2019-03-10T22:41:34.114Z,90.80
2019-03-10T22:44:01.545Z,91.70
2019-03-10T22:46:28.981Z,92.90
2019-03-10T22:48:56.448Z,93.10
2019-03-10T22:51:23.871Z,93.00
2019-03-10T22:53:51.321Z,93.20
2019-03-10T22:56:18.778Z,93.20
2019-03-10T22:58:46.225Z,93.70
2019-03-10T23:01:13.658Z,93.70
2019-03-10T23:03:41.105Z,93.60
2019-03-10T23:06:08.540Z,93.80
2019-03-10T23:08:36.011Z,93.60
2019-03-10T23:11:03.504Z,93.70
2019-03-10T23:13:31.050Z,93.60
2019-03-10T23:15:58.487Z,94.00
2019-03-10T23:18:26.176Z,94.00
2019-03-10T23:20:53.608Z,92.80
2019-03-10T23:23:21.144Z,93.10
2019-03-10T23:25:48.584Z,92.20
2019-03-10T23:28:16.023Z,92.50
2019-03-10T23:30:43.497Z,92.70
2019-03-10T23:33:11.192Z,92.00
2019-03-10T23:35:38.639Z,91.90
2019-03-10T23:38:06.542Z,92.30
2019-03-10T23:40:33.963Z,92.40
2019-03-10T23:43:01.401Z,91.80
2019-03-10T23:45:28.852Z,92.20
2019-03-10T23:47:56.285Z,91.60
2019-03-10T23:50:23.716Z,91.60
2019-03-10T23:52:51.158Z,91.10
2019-03-10T23:55:18.593Z,91.40
2019-03-10T23:57:46.275Z,91.40
